Time;durP1;ratioP1;P1;durP2;ratioP2;P2;SDS_P1;SDS_P2;PMS_P1;PMS_P2;Temp;Humidity;BMP_temperature;BMP_pressure;BME280_temperature;BME280_humidity;BME280_pressure;Samples;Min_cycle;Max_cycle;Signal;HPM_P1;HPM_P2
2022/08/20 00:02:12;;;;;;;;;;;;;;;18.72;88.76;101594.88;5114109;28;19923;-33
2022/08/20 00:04:40;;;;;;;;;;;;;;;18.73;89.29;101599.34;5115957;28;20006;-32
2022/08/20 00:07:07;;;;;;;;;;;;;;;18.74;89.93;101586.03;5115863;28;20013;-32
2022/08/20 00:09:35;;;;;;;;;;;;;;;18.73;89.88;101585.22;5114805;28;19923;-37
2022/08/20 00:12:04;;;;;;;;;;;;;;;18.73;90.38;101588.03;5115810;28;19924;-32
2022/08/20 00:14:31;;;;;;;;;;;;;;;18.72;91.18;101583.56;5115722;28;19928;-33
2022/08/20 00:17:01;;;;;;;;;;;;;;;18.73;91.04;101587.22;5115200;28;19924;-34
2022/08/20 00:19:29;;;;;;;;;;;;;;;18.72;91.19;101580.72;5115330;28;20300;-39
2022/08/20 00:21:57;;;;;;;;;;;;;;;18.69;91.71;101589.88;5114041;28;20307;-32
2022/08/20 00:24:25;;;;;;;;;;;;;;;18.68;91.89;101579.72;5115046;28;19949;-32
2022/08/20 00:26:53;;;;;;;;;;;;;;;18.64;91.49;101584.38;5115251;28;19924;-32
2022/08/20 00:29:20;;;;;;;;;;;;;;;18.60;91.42;101586.22;5113234;28;19930;-36
2022/08/20 00:31:49;;;;;;;;;;;;;;;18.57;92.03;101587.72;5114606;28;19962;-37
2022/08/20 00:34:18;;;;;;;;;;;;;;;18.54;92.34;101596.88;5115085;28;19970;-36
2022/08/20 00:36:45;;;;;;;;;;;;;;;18.51;92.23;101593.88;5115379;28;20114;-37
2022/08/20 00:39:13;;;;;;;;;;;;;;;18.45;92.45;101596.03;5114550;28;19934;-32
2022/08/20 00:41:41;;;;;;;;;;;;;;;18.41;92.81;101592.22;5114858;28;19928;-37
2022/08/20 00:44:12;;;;;;;;;;;;;;;18.37;92.79;101591.25;5114337;28;19927;-33
2022/08/20 00:46:40;;;;;;;;;;;;;;;18.32;93.18;101594.22;5114137;27;19963;-40
2022/08/20 00:49:08;;;;;;;;;;;;;;;18.30;93.99;101590.06;5115097;28;19924;-33
2022/08/20 00:51:39;;;;;;;;;;;;;;;18.27;94.35;101594.41;5114325;28;20325;-31
2022/08/20 00:54:10;;;;;;;;;;;;;;;18.23;95.09;101593.41;5104209;28;19931;-33
2022/08/20 00:56:39;;;;;;;;;;;;;;;18.19;95.60;101601.69;5114873;28;19924;-32
2022/08/20 00:59:10;;;;;;;;;;;;;;;18.14;95.70;101601.88;5114195;28;19931;-38
2022/08/20 01:01:38;;;;;;;;;;;;;;;18.08;95.98;101597.56;5114573;28;19932;-31
2022/08/20 01:04:23;;;;;;;;;;;;;;;18.03;96.50;101599.72;5103675;28;20813;-37
2022/08/20 01:06:53;;;;;;;;;;;;;;;17.97;97.15;101598.22;5113670;28;20072;-31
2022/08/20 01:09:21;;;;;;;;;;;;;;;17.90;97.57;101599.53;5114747;28;19931;-32
2022/08/20 01:12:09;;;;;;;;;;;;;;;17.84;97.72;101600.84;5113034;28;19932;-41
2022/08/20 01:14:42;;;;;;;;;;;;;;;17.80;98.01;101605.50;5114321;28;19931;-38
2022/08/20 01:17:13;;;;;;;;;;;;;;;17.77;98.60;101608.19;5114500;28;19932;-33
2022/08/20 01:19:43;;;;;;;;;;;;;;;17.73;98.94;101604.34;5113991;28;20022;-32
2022/08/20 01:25:03;;;;;;;;;;;;;;;17.70;99.90;101599.34;5113977;27;19928;-33
2022/08/20 01:27:33;;;;;;;;;;;;;;;17.68;100.00;101604.50;5114056;28;19931;-31
2022/08/20 01:30:09;;;;;;;;;;;;;;;17.66;100.00;101609.63;5114033;28;19950;-32
2022/08/20 01:32:37;;;;;;;;;;;;;;;17.65;100.00;101610.78;5114087;28;19924;-33
2022/08/20 01:35:05;;;;;;;;;;;;;;;17.62;100.00;101608.59;5113640;28;20026;-34
2022/08/20 01:37:33;;;;;;;;;;;;;;;17.58;100.00;101616.91;5113932;28;19928;-34
2022/08/20 01:40:01;;;;;;;;;;;;;;;17.54;100.00;101613.91;5113909;28;20014;-30
2022/08/20 01:42:32;;;;;;;;;;;;;;;17.49;100.00;101613.22;5113099;28;19931;-37
2022/08/20 01:45:01;;;;;;;;;;;;;;;17.45;100.00;101606.56;5113966;28;19927;-30
2022/08/20 01:47:31;;;;;;;;;;;;;;;17.43;100.00;101612.53;5113197;28;19924;-35
2022/08/20 01:50:07;;;;;;;;;;;;;;;17.39;100.00;101619.97;5113837;28;20330;-30
2022/08/20 01:52:40;;;;;;;;;;;;;;;17.35;100.00;101616.16;5114048;28;19924;-31
2022/08/20 01:55:08;;;;;;;;;;;;;;;17.31;100.00;101614.31;5110636;28;19938;-30
2022/08/20 01:57:37;;;;;;;;;;;;;;;17.25;100.00;101609.97;5113348;28;19931;-32
2022/08/20 02:00:08;;;;;;;;;;;;;;;17.18;100.00;101613.28;5113816;28;19924;-30
2022/08/20 02:02:48;;;;;;;;;;;;;;;17.12;100.00;101617.41;5108365;28;19924;-38
2022/08/20 02:05:15;;;;;;;;;;;;;;;17.07;100.00;101614.72;5113231;28;20384;-34
2022/08/20 02:07:43;;;;;;;;;;;;;;;17.02;100.00;101614.84;5113411;28;19924;-34
2022/08/20 02:10:12;;;;;;;;;;;;;;;16.96;100.00;101621.81;5112566;28;20014;-32
2022/08/20 02:12:40;;;;;;;;;;;;;;;16.90;100.00;101621.09;5113929;28;20280;-33
2022/08/20 02:15:10;;;;;;;;;;;;;;;16.83;100.00;101618.72;5113465;28;19931;-30
2022/08/20 02:17:38;;;;;;;;;;;;;;;16.78;100.00;101618.06;5112523;28;20403;-35
2022/08/20 02:20:10;;;;;;;;;;;;;;;16.74;100.00;101622.66;5113065;28;20283;-38
2022/08/20 02:22:40;;;;;;;;;;;;;;;16.67;100.00;101631.56;5112184;28;20719;-31
2022/08/20 02:25:17;;;;;;;;;;;;;;;16.63;100.00;101635.31;5112854;28;19931;-37
2022/08/20 02:27:47;;;;;;;;;;;;;;;16.56;100.00;101626.50;5112972;28;20060;-39
2022/08/20 02:30:19;;;;;;;;;;;;;;;16.50;100.00;101628.59;5112521;28;19930;-35
2022/08/20 02:32:55;;;;;;;;;;;;;;;16.46;100.00;101627.56;5112838;28;19928;-38
2022/08/20 02:35:23;;;;;;;;;;;;;;;16.41;100.00;101624.88;5112914;28;19931;-33
2022/08/20 02:37:51;;;;;;;;;;;;;;;16.36;100.00;101625.88;5112525;28;19928;-31
2022/08/20 02:40:20;;;;;;;;;;;;;;;16.31;100.00;101627.97;5112742;28;19970;-31
2022/08/20 02:42:58;;;;;;;;;;;;;;;16.26;100.00;101631.72;5112984;28;19955;-36
2022/08/20 02:45:27;;;;;;;;;;;;;;;16.22;100.00;101635.50;5100693;28;20186;-40
2022/08/20 02:47:56;;;;;;;;;;;;;;;16.17;100.00;101640.13;5112600;28;19931;-36
2022/08/20 02:50:24;;;;;;;;;;;;;;;16.12;100.00;101640.25;5112896;28;19977;-33
2022/08/20 02:52:52;;;;;;;;;;;;;;;16.08;100.00;101629.91;5111242;28;20407;-33
2022/08/20 02:55:20;;;;;;;;;;;;;;;16.04;100.00;101624.09;5112757;28;19986;-29
2022/08/20 02:57:54;;;;;;;;;;;;;;;16.02;100.00;101625.56;5112157;28;20292;-38
2022/08/20 03:00:29;;;;;;;;;;;;;;;15.98;100.00;101627.34;5112648;28;19924;-35
2022/08/20 03:03:05;;;;;;;;;;;;;;;15.93;100.00;101622.66;5110615;28;19924;-31
2022/08/20 03:05:32;;;;;;;;;;;;;;;15.90;100.00;101622.47;5111094;28;19924;-32
2022/08/20 03:08:00;;;;;;;;;;;;;;;15.85;100.00;101617.78;5112312;28;20277;-31
2022/08/20 03:10:29;;;;;;;;;;;;;;;15.80;100.00;101610.28;5112402;28;19924;-30
2022/08/20 03:12:58;;;;;;;;;;;;;;;15.77;100.00;101616.56;5112073;28;19988;-30
2022/08/20 03:15:27;;;;;;;;;;;;;;;15.73;100.00;101615.53;5112306;28;19931;-30
2022/08/20 03:17:55;;;;;;;;;;;;;;;15.70;100.00;101620.94;5112680;28;19936;-31
2022/08/20 03:20:23;;;;;;;;;;;;;;;15.66;100.00;101619.91;5111366;28;19955;-31
2022/08/20 03:22:52;;;;;;;;;;;;;;;15.59;100.00;101613.88;5112119;28;19924;-34
2022/08/20 03:25:20;;;;;;;;;;;;;;;15.55;100.00;101612.81;5111876;28;19931;-38
2022/08/20 03:27:48;;;;;;;;;;;;;;;15.51;100.00;101615.41;5109931;28;19934;-41
2022/08/20 03:30:20;;;;;;;;;;;;;;;15.47;100.00;101623.66;5112369;28;19928;-33
2022/08/20 03:32:49;;;;;;;;;;;;;;;15.44;100.00;101618.63;5111742;28;19923;-39
2022/08/20 03:35:18;;;;;;;;;;;;;;;15.41;100.00;101624.06;5111909;28;19924;-34
2022/08/20 03:37:46;;;;;;;;;;;;;;;15.37;100.00;101623.88;5112430;28;20285;-40
2022/08/20 03:40:16;;;;;;;;;;;;;;;15.33;100.00;101628.44;5111776;28;19931;-38
2022/08/20 03:42:44;;;;;;;;;;;;;;;15.30;100.00;101629.06;5112030;28;19970;-41
2022/08/20 03:45:12;;;;;;;;;;;;;;;15.26;100.00;101639.28;5112288;28;19924;-33
2022/08/20 03:47:46;;;;;;;;;;;;;;;15.22;100.00;101634.56;5111658;28;20355;-32
2022/08/20 03:50:15;;;;;;;;;;;;;;;15.18;100.00;101639.19;5111830;28;19928;-33
2022/08/20 03:52:50;;;;;;;;;;;;;;;15.12;100.00;101644.06;5102431;28;19928;-33
2022/08/20 03:55:17;;;;;;;;;;;;;;;15.10;100.00;101638.75;5111437;28;19931;-41
2022/08/20 03:57:45;;;;;;;;;;;;;;;15.06;100.00;101640.50;5112083;28;19924;-33
2022/08/20 04:00:14;;;;;;;;;;;;;;;15.03;100.00;101638.31;5112025;28;20368;-37
2022/08/20 04:02:42;;;;;;;;;;;;;;;15.00;100.00;101636.13;5111449;28;19924;-34
2022/08/20 04:05:09;;;;;;;;;;;;;;;14.95;100.00;101641.84;5115912;28;19924;-32
2022/08/20 04:07:39;;;;;;;;;;;;;;;14.91;100.00;101645.59;5115734;28;19924;-32
2022/08/20 04:10:08;;;;;;;;;;;;;;;14.88;100.00;101637.78;5114906;28;19962;-33
2022/08/20 04:12:39;;;;;;;;;;;;;;;14.83;100.00;101633.06;5115667;28;19977;-32
2022/08/20 04:15:17;;;;;;;;;;;;;;;14.79;100.00;101632.00;5115215;27;20419;-37
2022/08/20 04:17:46;;;;;;;;;;;;;;;14.75;100.00;101629.00;5115675;28;20288;-40
2022/08/20 04:20:17;;;;;;;;;;;;;;;14.73;100.00;101634.09;5115674;28;19923;-38
2022/08/20 04:22:46;;;;;;;;;;;;;;;14.69;100.00;101627.44;5114961;28;19923;-35
2022/08/20 04:25:25;;;;;;;;;;;;;;;14.67;100.00;101626.91;5115043;28;20435;-38
2022/08/20 04:27:53;;;;;;;;;;;;;;;14.65;100.00;101637.59;5115191;28;20400;-41
2022/08/20 04:30:24;;;;;;;;;;;;;;;14.62;100.00;101635.41;5113247;28;20695;-32
2022/08/20 04:32:52;;;;;;;;;;;;;;;14.60;100.00;101642.47;5115345;28;19928;-33
2022/08/20 04:35:23;;;;;;;;;;;;;;;14.59;100.00;101652.06;5115280;28;19924;-33
2022/08/20 04:37:57;;;;;;;;;;;;;;;14.58;100.00;101656.84;5108737;28;19923;-35
2022/08/20 04:43:10;;;;;;;;;;;;;;;14.51;100.00;101655.56;5110168;28;20373;-34
2022/08/20 04:45:39;;;;;;;;;;;;;;;14.48;100.00;101655.03;5114713;28;19928;-33
2022/08/20 04:48:06;;;;;;;;;;;;;;;14.47;100.00;101661.78;5115178;28;19947;-33
2022/08/20 04:50:42;;;;;;;;;;;;;;;14.45;100.00;101660.41;5114467;28;20286;-33
2022/08/20 04:53:12;;;;;;;;;;;;;;;14.43;100.00;101657.09;5114865;28;19923;-32
2022/08/20 04:55:41;;;;;;;;;;;;;;;14.41;100.00;101663.00;5114904;28;19998;-35
2022/08/20 04:58:11;;;;;;;;;;;;;;;14.42;100.00;101663.84;5114313;28;20510;-39
2022/08/20 05:00:39;;;;;;;;;;;;;;;14.39;100.00;101672.84;5114570;28;19924;-32
2022/08/20 05:03:06;;;;;;;;;;;;;;;14.39;100.00;101664.41;5114386;28;19927;-38
2022/08/20 05:05:34;;;;;;;;;;;;;;;14.39;100.00;101676.47;5114040;28;19973;-34
2022/08/20 05:08:02;;;;;;;;;;;;;;;14.39;100.00;101670.03;5114652;28;19962;-38
2022/08/20 05:10:31;;;;;;;;;;;;;;;14.38;100.00;101669.22;5114633;28;19931;-35
2022/08/20 05:12:59;;;;;;;;;;;;;;;14.39;100.00;101681.25;5114127;28;20009;-35
2022/08/20 05:15:26;;;;;;;;;;;;;;;14.37;100.00;101673.16;5102288;28;19930;-42
2022/08/20 05:17:55;;;;;;;;;;;;;;;14.39;100.00;101681.25;5114334;28;19932;-43
2022/08/20 05:20:23;;;;;;;;;;;;;;;14.37;100.00;101680.75;5113496;28;20292;-42
2022/08/20 05:22:53;;;;;;;;;;;;;;;14.40;100.00;101672.56;5114295;28;19930;-37
2022/08/20 05:25:20;;;;;;;;;;;;;;;14.42;100.00;101677.88;5109923;28;19964;-36
2022/08/20 05:27:49;;;;;;;;;;;;;;;14.47;100.00;101684.25;5114052;28;19928;-35
2022/08/20 05:30:18;;;;;;;;;;;;;;;14.50;100.00;101682.81;5114349;28;19924;-35
2022/08/20 05:32:48;;;;;;;;;;;;;;;14.54;100.00;101680.22;5113132;28;19951;-33
2022/08/20 05:35:15;;;;;;;;;;;;;;;14.57;100.00;101686.09;5114044;28;19930;-35
2022/08/20 05:37:44;;;;;;;;;;;;;;;14.61;100.00;101677.84;5114135;28;19939;-38
2022/08/20 05:40:13;;;;;;;;;;;;;;;14.65;100.00;101696.59;5113584;28;19928;-39
2022/08/20 05:42:42;;;;;;;;;;;;;;;14.72;100.00;101693.41;5110825;28;20380;-33
2022/08/20 05:45:11;;;;;;;;;;;;;;;14.76;100.00;101691.66;5114134;28;19924;-32
2022/08/20 05:47:40;;;;;;;;;;;;;;;14.82;100.00;101696.03;5112877;28;19928;-38
2022/08/20 05:50:10;;;;;;;;;;;;;;;14.89;100.00;101695.66;5114036;28;19924;-37
2022/08/20 05:52:47;;;;;;;;;;;;;;;14.94;100.00;101701.19;5113704;28;19924;-33
2022/08/20 05:55:14;;;;;;;;;;;;;;;14.99;100.00;101701.06;5113476;28;19930;-33
2022/08/20 05:57:44;;;;;;;;;;;;;;;15.07;100.00;101698.41;5113830;28;19946;-33
2022/08/20 06:00:14;;;;;;;;;;;;;;;15.16;100.00;101705.00;5113687;28;20324;-33
2022/08/20 06:05:27;;;;;;;;;;;;;;;15.33;100.00;101709.16;5113467;28;19935;-33
2022/08/20 06:07:54;;;;;;;;;;;;;;;15.39;100.00;101714.38;5113216;28;19930;-32
2022/08/20 06:10:34;;;;;;;;;;;;;;;15.46;100.00;101709.19;5113328;28;20115;-39
2022/08/20 06:13:02;;;;;;;;;;;;;;;15.52;100.00;101705.13;5113453;28;20020;-36
2022/08/20 06:15:31;;;;;;;;;;;;;;;15.60;100.00;101711.19;5112844;28;19923;-34
2022/08/20 06:18:02;;;;;;;;;;;;;;;15.69;100.00;101714.94;5113273;28;19924;-38
2022/08/20 06:20:50;;;;;;;;;;;;;;;15.76;100.00;101706.94;5113465;28;19928;-34
2022/08/20 06:23:18;;;;;;;;;;;;;;;15.84;100.00;101709.00;5112516;27;20433;-32
2022/08/20 06:25:48;;;;;;;;;;;;;;;15.94;100.00;101707.97;5113379;28;20018;-36
2022/08/20 06:28:16;;;;;;;;;;;;;;;16.06;100.00;101699.78;5112128;28;19924;-33
2022/08/20 06:30:45;;;;;;;;;;;;;;;16.19;100.00;101707.38;5112521;28;19935;-31
2022/08/20 06:33:13;;;;;;;;;;;;;;;16.29;100.00;101706.31;5113202;28;19938;-33
2022/08/20 06:35:41;;;;;;;;;;;;;;;16.41;100.00;101703.75;5112410;28;19924;-39
2022/08/20 06:38:09;;;;;;;;;;;;;;;16.59;100.00;101705.56;5111808;28;19930;-32
2022/08/20 06:40:37;;;;;;;;;;;;;;;16.90;100.00;101711.31;5101075;28;19924;-32
2022/08/20 06:43:08;;;;;;;;;;;;;;;17.31;100.00;101711.06;5110950;28;19977;-33
2022/08/20 06:45:37;;;;;;;;;;;;;;;17.77;100.00;101707.81;5110937;28;19931;-32
2022/08/20 06:48:07;;;;;;;;;;;;;;;18.31;100.00;101711.25;5108957;28;19931;-33
2022/08/20 06:50:38;;;;;;;;;;;;;;;18.94;100.00;101715.44;5111478;28;20023;-33
2022/08/20 06:53:15;;;;;;;;;;;;;;;19.62;100.00;101713.56;5108194;28;19927;-36
2022/08/20 06:55:45;;;;;;;;;;;;;;;20.18;100.00;101720.75;5109548;28;20373;-34
2022/08/20 06:58:15;;;;;;;;;;;;;;;20.82;100.00;101713.94;5110142;28;20026;-40
2022/08/20 07:01:03;;;;;;;;;;;;;;;21.66;100.00;101721.06;5112657;28;20316;-36
2022/08/20 07:03:39;;;;;;;;;;;;;;;22.40;98.83;101719.03;5109243;28;19968;-34
2022/08/20 07:06:21;;;;;;;;;;;;;;;23.13;92.61;101719.66;5112663;28;19931;-38
2022/08/20 07:08:49;;;;;;;;;;;;;;;23.78;88.90;101720.16;5111709;28;19935;-38
2022/08/20 07:11:16;;;;;;;;;;;;;;;24.43;81.94;101719.72;5111758;28;19924;-38
2022/08/20 07:13:44;;;;;;;;;;;;;;;25.02;80.06;101720.22;5112291;28;20285;-41
2022/08/20 07:16:12;;;;;;;;;;;;;;;25.62;69.92;101717.72;5111126;28;19935;-34
2022/08/20 07:18:40;;;;;;;;;;;;;;;26.08;66.06;101717.69;5111716;28;19924;-34
2022/08/20 07:21:08;;;;;;;;;;;;;;;26.51;65.33;101718.38;5112153;28;20535;-33
2022/08/20 07:23:36;;;;;;;;;;;;;;;26.94;57.62;101726.34;5112028;28;20327;-34
2022/08/20 07:26:04;;;;;;;;;;;;;;;27.19;52.21;101714.31;5110758;28;20373;-35
2022/08/20 07:28:31;;;;;;;;;;;;;;;27.20;48.58;101721.72;5112279;28;19935;-33
2022/08/20 07:33:48;;;;;;;;;;;;;;;27.40;55.95;101723.16;5106014;28;19927;-41
2022/08/20 07:36:18;;;;;;;;;;;;;;;27.91;47.46;101722.44;5112376;28;19955;-33
2022/08/20 07:38:46;;;;;;;;;;;;;;;28.12;47.81;101723.44;5114290;28;19924;-32
2022/08/20 07:41:14;;;;;;;;;;;;;;;28.19;46.53;101727.56;5114938;28;20054;-37
2022/08/20 07:43:43;;;;;;;;;;;;;;;28.30;47.70;101723.59;5116111;28;19927;-32
2022/08/20 07:46:12;;;;;;;;;;;;;;;28.51;44.22;101733.56;5115318;28;19932;-40
2022/08/20 07:48:41;;;;;;;;;;;;;;;28.66;46.07;101727.50;5115353;28;19949;-33
2022/08/20 07:51:10;;;;;;;;;;;;;;;28.72;47.47;101733.69;5116215;28;19924;-33
2022/08/20 07:53:41;;;;;;;;;;;;;;;28.72;46.51;101731.63;5115209;28;19924;-35
2022/08/20 07:56:11;;;;;;;;;;;;;;;28.74;44.80;101722.63;5115819;28;19923;-42
2022/08/20 07:58:41;;;;;;;;;;;;;;;28.88;45.32;101725.56;5115931;28;20377;-30
2022/08/20 08:01:09;;;;;;;;;;;;;;;28.96;45.42;101727.25;5115500;28;19923;-36
2022/08/20 08:03:37;;;;;;;;;;;;;;;29.15;43.85;101728.97;5115305;28;19923;-34
2022/08/20 08:06:19;;;;;;;;;;;;;;;29.41;43.70;101725.75;5106083;28;19955;-36
2022/08/20 08:08:57;;;;;;;;;;;;;;;29.78;40.44;101725.38;5115069;28;19924;-41
2022/08/20 08:11:25;;;;;;;;;;;;;;;29.94;39.50;101736.50;5115441;28;20026;-36
2022/08/20 08:13:53;;;;;;;;;;;;;;;29.89;41.62;101736.91;5115956;28;19951;-33
2022/08/20 08:16:21;;;;;;;;;;;;;;;29.76;40.81;101733.63;5114958;28;20419;-34
2022/08/20 08:18:50;;;;;;;;;;;;;;;29.81;38.95;101733.19;5115044;28;19923;-38
2022/08/20 08:21:21;;;;;;;;;;;;;;;29.95;39.77;101745.97;5115027;28;19932;-32
2022/08/20 08:23:48;;;;;;;;;;;;;;;29.98;41.05;101745.16;5115530;28;19931;-36
2022/08/20 08:26:18;;;;;;;;;;;;;;;30.25;41.57;101739.81;5114832;27;19923;-33
2022/08/20 08:28:46;;;;;;;;;;;;;;;30.41;40.70;101743.88;5114340;28;20281;-33
2022/08/20 08:31:14;;;;;;;;;;;;;;;30.45;40.05;101738.94;5114901;28;19957;-32
2022/08/20 08:33:42;;;;;;;;;;;;;;;30.57;40.14;101737.72;5114658;28;19924;-32
2022/08/20 08:36:11;;;;;;;;;;;;;;;30.72;39.27;101750.03;5114719;28;19924;-35
2022/08/20 08:38:43;;;;;;;;;;;;;;;30.66;38.14;101751.69;5115125;28;20392;-42
2022/08/20 08:41:13;;;;;;;;;;;;;;;30.63;38.24;101747.56;5114669;28;20384;-34
2022/08/20 08:43:41;;;;;;;;;;;;;;;30.69;37.52;101743.03;5111079;28;19975;-37
2022/08/20 08:46:10;;;;;;;;;;;;;;;30.46;37.58;101755.00;5115326;27;19950;-37
2022/08/20 08:48:43;;;;;;;;;;;;;;;30.52;40.60;101752.50;5114245;28;19923;-38
2022/08/20 08:51:11;;;;;;;;;;;;;;;30.39;37.67;101755.00;5113339;28;19931;-38
2022/08/20 08:53:42;;;;;;;;;;;;;;;30.38;40.05;101761.16;5114828;28;19923;-36
2022/08/20 08:56:10;;;;;;;;;;;;;;;30.60;40.43;101759.09;5114164;28;20404;-40
2022/08/20 08:58:38;;;;;;;;;;;;;;;30.91;41.27;101766.00;5114257;28;19924;-40
2022/08/20 09:01:11;;;;;;;;;;;;;;;31.28;39.80;101762.56;5114939;28;19930;-35
2022/08/20 09:03:59;;;;;;;;;;;;;;;31.56;39.97;101768.19;5113347;28;20269;-37
2022/08/20 09:06:27;;;;;;;;;;;;;;;31.75;37.93;101764.78;5114181;28;19924;-36
2022/08/20 09:08:57;;;;;;;;;;;;;;;31.89;39.95;101765.91;5113369;28;19932;-36
2022/08/20 09:11:25;;;;;;;;;;;;;;;31.98;35.80;101769.13;5112678;28;19927;-39
2022/08/20 09:13:54;;;;;;;;;;;;;;;31.77;38.44;101762.31;5114420;28;19924;-37
2022/08/20 09:16:22;;;;;;;;;;;;;;;31.02;36.03;101761.84;5113967;28;20377;-34
2022/08/20 09:18:50;;;;;;;;;;;;;;;30.58;40.76;101765.28;5113177;28;19931;-35
2022/08/20 09:21:19;;;;;;;;;;;;;;;30.39;39.00;101759.94;5114335;28;19923;-37
2022/08/20 09:23:47;;;;;;;;;;;;;;;30.03;41.06;101762.84;5114612;28;19924;-33
2022/08/20 09:26:16;;;;;;;;;;;;;;;29.74;41.08;101756.25;5113450;28;19967;-33
2022/08/20 09:28:43;;;;;;;;;;;;;;;29.50;44.03;101762.78;5113390;28;20992;-38
2022/08/20 09:31:18;;;;;;;;;;;;;;;29.48;44.76;101751.66;5102503;28;20434;-35
2022/08/20 09:33:49;;;;;;;;;;;;;;;29.63;46.03;101760.31;5112055;28;20292;-33
2022/08/20 09:36:17;;;;;;;;;;;;;;;29.62;41.20;101765.25;5113025;28;19923;-35
2022/08/20 09:38:59;;;;;;;;;;;;;;;29.45;45.22;101760.28;5111497;28;19959;-39
2022/08/20 09:41:30;;;;;;;;;;;;;;;29.75;43.93;101757.06;5112733;28;19923;-35
2022/08/20 09:44:01;;;;;;;;;;;;;;;30.06;40.89;101755.44;5110279;28;19924;-35
2022/08/20 09:46:28;;;;;;;;;;;;;;;30.32;43.35;101746.38;5113135;28;19927;-40
2022/08/20 09:48:58;;;;;;;;;;;;;;;30.40;40.51;101750.88;5112804;28;19927;-37
2022/08/20 09:51:26;;;;;;;;;;;;;;;30.40;41.99;101747.16;5113735;28;19950;-37
2022/08/20 09:53:54;;;;;;;;;;;;;;;30.30;41.39;101748.84;5111301;28;19924;-38
2022/08/20 09:56:24;;;;;;;;;;;;;;;30.23;40.05;101745.16;5112774;28;19931;-33
2022/08/20 09:58:54;;;;;;;;;;;;;;;30.27;41.55;101746.78;5113312;28;19924;-33
2022/08/20 10:01:25;;;;;;;;;;;;;;;30.10;39.13;101745.59;5111806;28;20329;-37
2022/08/20 10:03:53;;;;;;;;;;;;;;;29.87;41.43;101741.44;5113098;28;19931;-38
2022/08/20 10:06:20;;;;;;;;;;;;;;;29.65;41.07;101744.28;5112962;28;20381;-35
2022/08/20 10:08:48;;;;;;;;;;;;;;;29.42;44.00;101749.59;5112292;28;19984;-38
2022/08/20 10:11:17;;;;;;;;;;;;;;;29.39;42.35;101744.63;5113042;28;20317;-40
2022/08/20 10:13:44;;;;;;;;;;;;;;;29.14;44.43;101751.13;5113029;28;20022;-35
2022/08/20 10:16:14;;;;;;;;;;;;;;;29.02;43.78;101748.63;5113087;28;19924;-34
2022/08/20 10:18:41;;;;;;;;;;;;;;;28.98;44.50;101747.78;5112811;28;19928;-35
2022/08/20 10:21:10;;;;;;;;;;;;;;;28.88;44.90;101742.81;5112490;28;20309;-33
2022/08/20 10:23:39;;;;;;;;;;;;;;;28.98;46.00;101742.03;5112831;28;19955;-34
2022/08/20 10:26:07;;;;;;;;;;;;;;;28.87;42.74;101735.41;5112767;27;20022;-33
2022/08/20 10:28:35;;;;;;;;;;;;;;;28.56;46.58;101741.81;5112433;28;19934;-33
2022/08/20 10:31:05;;;;;;;;;;;;;;;28.59;45.11;101738.09;5112749;28;20388;-36
2022/08/20 10:33:35;;;;;;;;;;;;;;;28.45;45.84;101744.59;5112971;28;19954;-33
2022/08/20 10:36:06;;;;;;;;;;;;;;;28.38;49.54;101739.63;5112177;28;20271;-35
2022/08/20 10:38:33;;;;;;;;;;;;;;;28.55;46.67;101743.84;5101657;28;19942;-34
2022/08/20 10:41:01;;;;;;;;;;;;;;;28.31;43.78;101739.59;5113147;28;20308;-38
2022/08/20 10:43:28;;;;;;;;;;;;;;;27.92;46.31;101744.19;5112217;28;19975;-33
2022/08/20 10:45:57;;;;;;;;;;;;;;;27.57;48.89;101741.78;5112480;28;20014;-35
2022/08/20 10:48:24;;;;;;;;;;;;;;;27.63;51.02;101745.94;5108675;28;19938;-34
2022/08/20 10:50:54;;;;;;;;;;;;;;;27.73;49.98;101736.63;5111619;28;19932;-31
2022/08/20 10:53:24;;;;;;;;;;;;;;;27.61;50.04;101743.47;5111656;28;19924;-37
2022/08/20 10:55:53;;;;;;;;;;;;;;;27.51;49.92;101743.34;5111110;28;19928;-31
2022/08/20 10:58:20;;;;;;;;;;;;;;;27.48;48.34;101742.09;5112664;28;19949;-37
2022/08/20 11:00:50;;;;;;;;;;;;;;;27.36;48.68;101734.59;5111687;28;20296;-31
2022/08/20 11:03:18;;;;;;;;;;;;;;;27.22;49.64;101730.75;5108430;28;20368;-31
2022/08/20 11:05:46;;;;;;;;;;;;;;;27.14;50.29;101734.75;5111766;28;19923;-30
2022/08/20 11:08:16;;;;;;;;;;;;;;;27.02;50.54;101738.69;5111625;28;20288;-30
2022/08/20 11:11:01;;;;;;;;;;;;;;;26.87;50.76;101745.44;5106108;28;20520;-30
2022/08/20 11:13:28;;;;;;;;;;;;;;;26.81;51.22;101739.22;5111787;28;19928;-30
2022/08/20 11:15:56;;;;;;;;;;;;;;;26.75;51.49;101749.38;5111843;28;20377;-32
2022/08/20 11:18:24;;;;;;;;;;;;;;;26.80;52.46;101749.03;5111609;28;20381;-33
2022/08/20 11:20:51;;;;;;;;;;;;;;;27.05;52.40;101753.06;5112561;28;20389;-31
2022/08/20 11:23:20;;;;;;;;;;;;;;;27.19;50.56;101742.97;5112191;28;19924;-34
2022/08/20 11:25:48;;;;;;;;;;;;;;;27.24;49.23;101745.50;5111667;28;19966;-30
2022/08/20 11:28:17;;;;;;;;;;;;;;;27.15;49.10;101745.84;5112089;28;19924;-39
2022/08/20 11:30:59;;;;;;;;;;;;;;;27.18;48.42;101744.22;5112065;28;19947;-30
2022/08/20 11:33:27;;;;;;;;;;;;;;;26.99;46.85;101746.03;5111975;28;19924;-30
2022/08/20 11:35:54;;;;;;;;;;;;;;;26.91;50.23;101746.31;5112227;28;19924;-36
2022/08/20 11:38:23;;;;;;;;;;;;;;;27.02;49.09;101753.03;5111036;28;19931;-36
2022/08/20 11:40:51;;;;;;;;;;;;;;;27.17;49.68;101748.31;5112011;28;19931;-31
2022/08/20 11:43:19;;;;;;;;;;;;;;;27.19;47.31;101754.44;5111949;28;19930;-30
2022/08/20 11:45:49;;;;;;;;;;;;;;;27.09;48.38;101756.81;5099733;28;19932;-38
2022/08/20 11:48:17;;;;;;;;;;;;;;;27.32;49.66;101756.66;5112251;28;20018;-30
2022/08/20 11:50:44;;;;;;;;;;;;;;;27.45;48.04;101751.47;5112239;28;20288;-30
2022/08/20 11:53:12;;;;;;;;;;;;;;;27.54;48.21;101748.31;5110850;28;19928;-30
2022/08/20 11:55:43;;;;;;;;;;;;;;;27.27;46.59;101745.56;5112231;28;19924;-33
2022/08/20 11:58:10;;;;;;;;;;;;;;;27.09;48.98;101751.06;5111642;28;20295;-32
2022/08/20 12:00:38;;;;;;;;;;;;;;;26.97;48.69;101742.75;5110296;28;20343;-33
2022/08/20 12:03:07;;;;;;;;;;;;;;;27.00;50.46;101752.56;5111807;28;20721;-30
2022/08/20 12:05:36;;;;;;;;;;;;;;;27.09;50.53;101745.34;5111631;28;19924;-32
2022/08/20 12:08:04;;;;;;;;;;;;;;;27.14;49.95;101741.31;5110106;28;19924;-33
2022/08/20 12:10:31;;;;;;;;;;;;;;;27.21;49.74;101737.69;5111685;28;19935;-37
2022/08/20 12:13:01;;;;;;;;;;;;;;;27.14;48.02;101737.63;5104027;28;19924;-39
2022/08/20 12:15:31;;;;;;;;;;;;;;;26.93;48.86;101736.13;5109795;28;19997;-31
2022/08/20 12:17:59;;;;;;;;;;;;;;;26.69;49.19;101740.31;5110887;28;19934;-32
2022/08/20 12:20:27;;;;;;;;;;;;;;;26.65;49.49;101735.72;5110517;28;20381;-36
2022/08/20 12:22:57;;;;;;;;;;;;;;;26.84;51.16;101743.34;5111424;28;19928;-37
2022/08/20 12:25:25;;;;;;;;;;;;;;;27.02;48.95;101738.69;5112608;28;19943;-39
2022/08/20 12:27:53;;;;;;;;;;;;;;;27.03;49.15;101754.66;5114260;28;19930;-36
2022/08/20 12:30:24;;;;;;;;;;;;;;;27.17;49.88;101743.41;5114695;28;19923;-29
2022/08/20 12:32:52;;;;;;;;;;;;;;;27.35;50.02;101747.28;5115203;28;20398;-35
2022/08/20 12:35:20;;;;;;;;;;;;;;;27.38;47.47;101751.38;5114361;28;19924;-36
2022/08/20 12:37:48;;;;;;;;;;;;;;;27.29;46.80;101745.16;5114427;28;20407;-31
2022/08/20 12:40:17;;;;;;;;;;;;;;;27.24;46.77;101740.59;5114753;28;19924;-33
2022/08/20 12:42:59;;;;;;;;;;;;;;;27.06;48.63;101743.25;5112938;28;19973;-35
2022/08/20 12:45:28;;;;;;;;;;;;;;;26.95;48.93;101742.31;5114577;28;19938;-36
2022/08/20 12:48:00;;;;;;;;;;;;;;;26.82;48.58;101740.03;5115167;28;19928;-36
2022/08/20 12:50:28;;;;;;;;;;;;;;;26.75;48.85;101735.88;5114317;28;19928;-35
2022/08/20 12:52:58;;;;;;;;;;;;;;;26.78;48.64;101737.94;5113338;28;19928;-30
2022/08/20 12:55:26;;;;;;;;;;;;;;;26.83;48.53;101744.56;5114753;28;19962;-36
2022/08/20 12:57:56;;;;;;;;;;;;;;;26.81;49.60;101744.94;5115059;28;19934;-36